Folla — LLPD — position and weather

sailwx.info

Track history (hours):
 
Tides and Currents Weather Stations Pressure Air Temp Water Temp Dewpoint Dewpoint Depression Visibility Wind Speed Wind Dir Waves Ship Positions

Folla

Last reported at 2014-Sep-19 10:07 UTC. Time now 2014-Sep-20 05:57 UTC.
Position N 67°03' E 012°40'.

Length 52 m; draft 5 m.

Type: Cargo ship. MMSI: 258253000.

Date/timePositionNaut miles runAvg speedWind from/ knotsBaromVisibWave heightAir tempDewpointWater temp
2014-Sep-19 10:07N 67°03' E 012°40'1911.4
2014-Sep-19 08:25N 66°44' E 012°24'1011.5
2014-Sep-19 07:33N 66°35' E 012°19'8 7.6
2014-Sep-19 06:33N 66°29' E 012°06'1010.5
2014-Sep-19 05:33N 66°25' E 012°29'8 7.7
2014-Sep-19 04:33N 66°18' E 012°23'66 9.2
2014-Sep-18 21:23N 65°13' E 011°54'910.7
2014-Sep-18 20:33N 65°05' E 011°45'8 7.7
2014-Sep-18 19:33N 64°59' E 011°35'1111.3
2014-Sep-18 18:33N 64°52' E 011°15'12 9.1
2014-Sep-18 17:15N 64°40' E 011°07'10 0.3
2014-Sep-17 12:34N 64°50' E 011°10'3 2.9
2014-Sep-17 11:34N 64°52' E 011°14'0 0.0
2014-Sep-17 10:34N 64°52' E 011°14'0 0.0
2014-Sep-17 09:34N 64°52' E 011°14'0 0.0
2014-Sep-17 08:33N 64°52' E 011°14'0 0.1
2014-Sep-17 07:34N 64°52' E 011°15'1 1.0
2014-Sep-17 06:34N 64°52' E 011°17'1 1.1
2014-Sep-17 05:33N 64°52' E 011°14'0 0.0
2014-Sep-17 04:34N 64°52' E 011°14'0 0.0
2014-Sep-17 03:33N 64°52' E 011°14'0 0.0
2014-Sep-17 02:33N 64°52' E 011°14'0 0.0
2014-Sep-17 01:34N 64°52' E 011°14'0 0.0
2014-Sep-17 00:34N 64°52' E 011°14'0 0.0
2014-Sep-16 23:33N 64°52' E 011°14'0 0.0
2014-Sep-16 22:34N 64°52' E 011°14'10 9.8
2014-Sep-16 21:33N 64°58' E 011°31'1111.1
2014-Sep-16 20:34N 65°07' E 011°48'7711.0
2014-Sep-16 13:33N 66°19' E 012°56'1211.1
2014-Sep-16 12:31N 66°30' E 012°58'3210.6
2014-Sep-16 09:28N 66°59' E 013°39'19 6.6
2014-Sep-16 06:33N 67°13' E 014°10'6 5.9
2014-Sep-16 05:34N 67°17' E 014°22'1211.8
2014-Sep-16 04:34N 67°28' E 014°35'12 2.8
2014-Sep-16 00:23N 67°39' E 014°48'144 5.1
2014-Sep-14 20:10N 69°34' E 018°46'4 0.4
2014-Sep-14 10:33N 69°35' E 018°55'12 0.6
2014-Sep-13 16:10N 69°46' E 019°11'710.6
2014-Sep-13 15:33N 69°41' E 018°59'1 0.8
2014-Sep-13 14:33N 69°40' E 018°59'234 7.3
2014-Sep-12 06:29N 66°28' E 012°57'6 5.9
2014-Sep-12 05:32N 66°24' E 012°50'9 9.0
2014-Sep-12 04:32N 66°16' E 012°40'83 9.2
2014-Sep-11 19:33N 64°58' E 011°32'1110.7
2014-Sep-11 18:33N 64°51' E 011°13'2 0.1
2014-Sep-10 12:31N 64°49' E 011°09'3 3.4
2014-Sep-10 11:33N 64°52' E 011°14'0 0.0
2014-Sep-10 10:33N 64°52' E 011°14'0 0.0
2014-Sep-10 09:33N 64°52' E 011°14'0 0.0
2014-Sep-10 08:33N 64°52' E 011°14'0 0.1
2014-Sep-10 07:33N 64°52' E 011°15'0 0.1
2014-Sep-10 06:33N 64°52' E 011°15'1 0.9
2014-Sep-10 05:33N 64°52' E 011°17'0 0.0
2014-Sep-10 04:33N 64°52' E 011°17'0 0.0
2014-Sep-10 03:33N 64°52' E 011°17'9 8.7
2014-Sep-10 02:33N 64°57' E 011°32'7 3.2
2014-Sep-10 00:29N 65°02' E 011°43'11 7.7
2014-Sep-09 23:06N 65°12' E 011°53'55 9.6
2014-Sep-09 17:24N 66°04' E 012°38'15 7.9
2014-Sep-09 15:31N 66°17' E 012°56'1111.0
2014-Sep-09 14:30N 66°28' E 012°59'32 8.0
2014-Sep-09 10:30N 66°58' E 013°30'  
Track history (hours):
 
Tides and Currents Weather Stations Pressure Air Temp Water Temp Dewpoint Dewpoint Depression Visibility Wind Speed Wind Dir Waves Ship Positions

Folla

Last reported at 2014-Sep-19 10:07 UTC. Time now 2014-Sep-20 05:57 UTC.
Position N 67°03' E 012°40'.

Length 52 m; draft 5 m.

Type: Cargo ship. MMSI: 258253000.

Date/timePositionNaut miles runAvg speedWind from/ knotsBaromVisibWave heightAir tempDewpointWater temp
2014-Sep-19 10:07N 67°03' E 012°40'1911.4
2014-Sep-19 08:25N 66°44' E 012°24'1011.5
2014-Sep-19 07:33N 66°35' E 012°19'8 7.6
2014-Sep-19 06:33N 66°29' E 012°06'1010.5
2014-Sep-19 05:33N 66°25' E 012°29'8 7.7
2014-Sep-19 04:33N 66°18' E 012°23'66 9.2
2014-Sep-18 21:23N 65°13' E 011°54'910.7
2014-Sep-18 20:33N 65°05' E 011°45'8 7.7
2014-Sep-18 19:33N 64°59' E 011°35'1111.3
2014-Sep-18 18:33N 64°52' E 011°15'12 9.1
2014-Sep-18 17:15N 64°40' E 011°07'10 0.3
2014-Sep-17 12:34N 64°50' E 011°10'3 2.9
2014-Sep-17 11:34N 64°52' E 011°14'0 0.0
2014-Sep-17 10:34N 64°52' E 011°14'0 0.0
2014-Sep-17 09:34N 64°52' E 011°14'0 0.0
2014-Sep-17 08:33N 64°52' E 011°14'0 0.1
2014-Sep-17 07:34N 64°52' E 011°15'1 1.0
2014-Sep-17 06:34N 64°52' E 011°17'1 1.1
2014-Sep-17 05:33N 64°52' E 011°14'0 0.0
2014-Sep-17 04:34N 64°52' E 011°14'0 0.0
2014-Sep-17 03:33N 64°52' E 011°14'0 0.0
2014-Sep-17 02:33N 64°52' E 011°14'0 0.0
2014-Sep-17 01:34N 64°52' E 011°14'0 0.0
2014-Sep-17 00:34N 64°52' E 011°14'0 0.0
2014-Sep-16 23:33N 64°52' E 011°14'0 0.0
2014-Sep-16 22:34N 64°52' E 011°14'10 9.8
2014-Sep-16 21:33N 64°58' E 011°31'1111.1
2014-Sep-16 20:34N 65°07' E 011°48'7711.0
2014-Sep-16 13:33N 66°19' E 012°56'1211.1
2014-Sep-16 12:31N 66°30' E 012°58'3210.6
2014-Sep-16 09:28N 66°59' E 013°39'19 6.6
2014-Sep-16 06:33N 67°13' E 014°10'6 5.9
2014-Sep-16 05:34N 67°17' E 014°22'1211.8
2014-Sep-16 04:34N 67°28' E 014°35'12 2.8
2014-Sep-16 00:23N 67°39' E 014°48'144 5.1
2014-Sep-14 20:10N 69°34' E 018°46'4 0.4
2014-Sep-14 10:33N 69°35' E 018°55'12 0.6
2014-Sep-13 16:10N 69°46' E 019°11'710.6
2014-Sep-13 15:33N 69°41' E 018°59'1 0.8
2014-Sep-13 14:33N 69°40' E 018°59'234 7.3
2014-Sep-12 06:29N 66°28' E 012°57'6 5.9
2014-Sep-12 05:32N 66°24' E 012°50'9 9.0
2014-Sep-12 04:32N 66°16' E 012°40'83 9.2
2014-Sep-11 19:33N 64°58' E 011°32'1110.7
2014-Sep-11 18:33N 64°51' E 011°13'2 0.1
2014-Sep-10 12:31N 64°49' E 011°09'3 3.4
2014-Sep-10 11:33N 64°52' E 011°14'0 0.0
2014-Sep-10 10:33N 64°52' E 011°14'0 0.0
2014-Sep-10 09:33N 64°52' E 011°14'0 0.0
2014-Sep-10 08:33N 64°52' E 011°14'0 0.1
2014-Sep-10 07:33N 64°52' E 011°15'0 0.1
2014-Sep-10 06:33N 64°52' E 011°15'1 0.9
2014-Sep-10 05:33N 64°52' E 011°17'0 0.0
2014-Sep-10 04:33N 64°52' E 011°17'0 0.0
2014-Sep-10 03:33N 64°52' E 011°17'9 8.7
2014-Sep-10 02:33N 64°57' E 011°32'7 3.2
2014-Sep-10 00:29N 65°02' E 011°43'11 7.7
2014-Sep-09 23:06N 65°12' E 011°53'55 9.6
2014-Sep-09 17:24N 66°04' E 012°38'15 7.9
2014-Sep-09 15:31N 66°17' E 012°56'1111.0
2014-Sep-09 14:30N 66°28' E 012°59'32 8.0
2014-Sep-09 10:30N 66°58' E 013°30'  

Dump ship's entire track history